createdAt,value
2019-04-10T00:00:44.363Z,4.80
2019-04-10T00:03:25.622Z,4.70
2019-04-10T00:05:44.574Z,5.23
2019-04-10T00:08:14.304Z,4.63
2019-04-10T00:10:43.764Z,5.30
2019-04-10T00:13:12.510Z,5.23
2019-04-10T00:15:40.962Z,5.13
2019-04-10T00:18:09.498Z,5.37
2019-04-10T00:20:38.057Z,4.97
2019-04-10T00:23:06.879Z,5.60
2019-04-10T00:25:35.670Z,6.90
2019-04-10T00:28:05.252Z,6.43
2019-04-10T00:30:33.959Z,6.83
2019-04-10T00:33:02.743Z,6.13
2019-04-10T00:35:31.683Z,5.73
2019-04-10T00:38:00.380Z,6.20
2019-04-10T00:40:28.858Z,6.37
2019-04-10T00:42:58.597Z,5.20
2019-04-10T00:45:27.342Z,6.43
2019-04-10T00:47:55.803Z,5.93
2019-04-10T00:50:24.503Z,6.70
2019-04-10T00:52:53.193Z,4.73
2019-04-10T00:55:21.823Z,5.70
2019-04-10T00:57:50.466Z,6.80
2019-04-10T01:00:19.801Z,6.57
2019-04-10T01:02:49.157Z,6.77
2019-04-10T01:05:17.818Z,6.50
2019-04-10T01:07:47.087Z,5.90
2019-04-10T01:10:16.333Z,5.87
2019-04-10T01:12:45.942Z,6.03
2019-04-10T01:15:14.738Z,4.93
2019-04-10T01:17:43.394Z,5.30
2019-04-10T01:20:13.316Z,6.03
2019-04-10T01:22:42.100Z,5.80
2019-04-10T01:25:10.628Z,5.73
2019-04-10T01:27:39.086Z,5.97
2019-04-10T01:30:08.752Z,5.30
2019-04-10T01:32:37.331Z,6.70
2019-04-10T01:35:07.827Z,6.57
2019-04-10T01:37:48.784Z,6.43
2019-04-10T01:40:08.726Z,6.00
2019-04-10T01:42:37.273Z,5.53
2019-04-10T01:45:07.203Z,5.70
2019-04-10T01:47:35.906Z,5.70
2019-04-10T01:50:06.257Z,5.77
2019-04-10T01:52:35.376Z,5.80
2019-04-10T01:55:17.219Z,6.47
2019-04-10T01:57:36.647Z,6.17
2019-04-10T02:00:09.239Z,5.90
2019-04-10T02:02:47.665Z,5.50
2019-04-10T02:05:36.582Z,5.07
2019-04-10T02:08:08.973Z,5.90
2019-04-10T02:10:36.414Z,6.00
2019-04-10T02:13:05.413Z,5.93
2019-04-10T02:15:34.269Z,5.87
2019-04-10T02:18:10.916Z,6.43
2019-04-10T02:20:39.589Z,6.50
2019-04-10T02:23:08.049Z,7.00
2019-04-10T02:25:36.957Z,6.70
2019-04-10T02:28:05.632Z,6.70
2019-04-10T02:30:54.491Z,6.83
2019-04-10T02:33:23.335Z,7.10
2019-04-10T02:35:52.610Z,6.67
2019-04-10T02:38:38.984Z,6.93
2019-04-10T02:40:52.836Z,6.53
2019-04-10T02:43:23.159Z,6.40
2019-04-10T02:45:51.921Z,6.40
2019-04-10T02:48:20.844Z,6.70
2019-04-10T02:50:51.349Z,6.13
2019-04-10T02:53:21.574Z,6.77
2019-04-10T02:55:51.602Z,7.63
2019-04-10T02:58:20.585Z,4.70
2019-04-10T03:00:51.875Z,6.27
2019-04-10T03:03:20.126Z,6.37
2019-04-10T03:05:48.940Z,6.77
2019-04-10T03:08:17.509Z,5.97
2019-04-10T03:10:53.059Z,6.07
2019-04-10T03:13:17.774Z,6.40
2019-04-10T03:15:47.666Z,6.53
2019-04-10T03:18:16.823Z,5.40
2019-04-10T03:20:46.715Z,6.23
2019-04-10T03:23:15.646Z,7.13
2019-04-10T03:25:45.392Z,6.13
2019-04-10T03:28:14.595Z,5.40
2019-04-10T03:30:44.364Z,6.37
2019-04-10T03:33:24.572Z,5.83
2019-04-10T03:35:53.091Z,5.93
2019-04-10T03:38:21.730Z,4.40
2019-04-10T03:40:51.336Z,6.00
2019-04-10T03:43:20.043Z,5.23
2019-04-10T03:45:48.672Z,5.93
2019-04-10T03:48:17.252Z,6.73
2019-04-10T03:50:45.932Z,6.33
2019-04-10T03:53:14.513Z,5.87
2019-04-10T03:55:43.280Z,6.97
2019-04-10T03:58:11.846Z,5.43
2019-04-10T04:00:40.489Z,6.37
2019-04-10T04:03:09.286Z,6.00
2019-04-10T04:05:37.738Z,7.57
2019-04-10T04:08:06.208Z,8.30
2019-04-10T04:10:35.059Z,7.97
2019-04-10T04:13:05.734Z,9.30
2019-04-10T04:15:34.335Z,7.53
2019-04-10T04:18:02.795Z,8.10
2019-04-10T04:20:31.884Z,5.93
2019-04-10T04:23:01.250Z,6.07
2019-04-10T04:25:30.541Z,6.50
2019-04-10T04:27:59.039Z,6.70
2019-04-10T04:30:27.658Z,9.20
2019-04-10T04:32:56.137Z,9.20
2019-04-10T04:35:25.641Z,7.57
2019-04-10T04:37:54.939Z,6.57
2019-04-10T04:40:23.829Z,6.53
2019-04-10T04:42:53.558Z,7.53
2019-04-10T04:45:22.164Z,7.77
2019-04-10T04:47:50.703Z,8.30
2019-04-10T04:50:19.974Z,8.10
2019-04-10T04:52:49.317Z,6.87
2019-04-10T04:55:17.927Z,8.50
2019-04-10T04:57:47.120Z,9.10
2019-04-10T05:00:17.279Z,8.87
2019-04-10T05:02:48.966Z,8.37
2019-04-10T05:05:18.465Z,7.60
2019-04-10T05:07:56.370Z,7.80
2019-04-10T05:10:17.454Z,8.07
2019-04-10T05:12:45.974Z,8.60
2019-04-10T05:15:14.926Z,7.60
2019-04-10T05:17:43.606Z,8.27
2019-04-10T05:20:12.444Z,7.60
2019-04-10T05:22:41.650Z,7.63
2019-04-10T05:25:11.144Z,7.83
2019-04-10T05:27:39.657Z,7.40
2019-04-10T05:30:08.510Z,8.60
2019-04-10T05:32:37.602Z,9.23
2019-04-10T05:35:09.750Z,8.13
2019-04-10T05:37:37.935Z,8.03
2019-04-10T05:40:07.806Z,8.00
2019-04-10T05:42:37.294Z,8.60
2019-04-10T05:45:07.533Z,7.73
2019-04-10T05:47:36.648Z,9.03
2019-04-10T05:50:06.265Z,8.33
2019-04-10T05:52:35.368Z,8.03
2019-04-10T05:55:04.803Z,7.87
2019-04-10T05:57:33.321Z,8.33
2019-04-10T06:00:02.697Z,7.23
2019-04-10T06:02:32.124Z,5.60
2019-04-10T06:05:00.672Z,8.13
2019-04-10T06:07:29.422Z,7.93
2019-04-10T06:10:04.038Z,9.00
2019-04-10T06:12:28.579Z,8.27
2019-04-10T06:14:57.437Z,7.90
2019-04-10T06:17:26.820Z,8.03
2019-04-10T06:19:56.669Z,6.10
2019-04-10T06:22:26.423Z,6.70
2019-04-10T06:24:56.444Z,8.30
2019-04-10T06:27:26.183Z,7.93
2019-04-10T06:29:55.255Z,7.87
2019-04-10T06:32:25.392Z,7.80
2019-04-10T06:34:55.253Z,10.43
2019-04-10T06:37:24.227Z,11.03
2019-04-10T06:40:05.060Z,6.43
2019-04-10T06:42:22.952Z,7.27
2019-04-10T06:44:52.341Z,5.33
2019-04-10T06:47:20.843Z,7.43
2019-04-10T06:49:50.426Z,6.90
2019-04-10T06:52:19.109Z,6.10
2019-04-10T06:54:47.570Z,5.37
2019-04-10T06:57:16.717Z,5.80
2019-04-10T06:59:46.100Z,6.10
2019-04-10T07:02:23.720Z,5.00
2019-04-10T07:04:52.582Z,5.23
2019-04-10T07:07:18.062Z,5.33
2019-04-10T07:09:45.430Z,5.33
2019-04-10T07:12:14.381Z,5.83
2019-04-10T07:14:45.518Z,6.43
2019-04-10T07:17:14.372Z,5.80
2019-04-10T07:19:45.301Z,4.97
2019-04-10T07:22:14.717Z,4.73
2019-04-10T07:24:44.028Z,3.77
2019-04-10T07:27:13.927Z,6.50
2019-04-10T07:29:42.578Z,4.87
2019-04-10T07:32:12.290Z,5.53
2019-04-10T07:34:42.442Z,6.00
2019-04-10T07:37:14.696Z,4.77
2019-04-10T07:39:41.568Z,5.17
2019-04-10T07:42:10.333Z,5.53
2019-04-10T07:44:38.794Z,5.30
2019-04-10T07:47:07.304Z,5.27
2019-04-10T07:49:38.139Z,5.13
2019-04-10T07:52:06.080Z,4.90
2019-04-10T07:54:35.062Z,5.90
2019-04-10T07:57:23.019Z,5.70
2019-04-10T07:59:52.585Z,5.23
2019-04-10T08:02:21.306Z,5.57
2019-04-10T08:04:50.003Z,5.40
2019-04-10T08:07:26.670Z,5.67
2019-04-10T08:09:49.732Z,5.13
2019-04-10T08:12:19.004Z,5.10
2019-04-10T08:14:50.446Z,5.53
2019-04-10T08:17:19.686Z,5.37
2019-04-10T08:19:48.789Z,5.03
2019-04-10T08:22:17.981Z,6.03
2019-04-10T08:24:47.314Z,5.47
2019-04-10T08:27:17.132Z,5.20
2019-04-10T08:29:46.223Z,4.87
2019-04-10T08:32:15.964Z,4.37
2019-04-10T08:34:44.774Z,5.43
2019-04-10T08:37:14.424Z,5.50
2019-04-10T08:39:46.490Z,5.40
2019-04-10T08:42:14.500Z,5.23
2019-04-10T08:44:44.480Z,6.27
2019-04-10T08:47:13.093Z,6.20
2019-04-10T08:49:41.619Z,3.50
2019-04-10T08:52:10.340Z,4.97
2019-04-10T08:54:39.121Z,5.70
2019-04-10T08:57:07.568Z,4.97
2019-04-10T08:59:36.899Z,5.30
2019-04-10T09:02:06.075Z,5.03
2019-04-10T09:04:34.818Z,5.00
2019-04-10T09:07:04.266Z,5.30
2019-04-10T09:09:33.932Z,6.07
2019-04-10T09:12:02.691Z,6.10
2019-04-10T09:14:31.139Z,8.33
2019-04-10T09:17:00.627Z,5.50
2019-04-10T09:19:29.993Z,5.27
2019-04-10T09:21:59.508Z,5.27
2019-04-10T09:24:28.092Z,5.37
2019-04-10T09:26:57.083Z,5.37
2019-04-10T09:29:26.142Z,5.23
2019-04-10T09:31:55.564Z,5.17
2019-04-10T09:34:25.579Z,5.70
2019-04-10T09:36:54.487Z,5.30
2019-04-10T09:39:23.359Z,5.13
2019-04-10T09:41:52.427Z,6.13
2019-04-10T09:44:21.166Z,5.53
2019-04-10T09:46:49.690Z,5.40
2019-04-10T09:49:30.412Z,5.83
2019-04-10T09:51:48.326Z,5.53
2019-04-10T09:54:17.527Z,5.93
2019-04-10T09:56:46.351Z,5.70
2019-04-10T09:59:16.028Z,6.07
2019-04-10T10:01:44.832Z,6.07
2019-04-10T10:04:13.333Z,6.20
2019-04-10T10:06:41.802Z,5.07
2019-04-10T10:09:10.556Z,5.67
2019-04-10T10:11:39.185Z,5.67
2019-04-10T10:14:07.744Z,5.60
2019-04-10T10:16:36.287Z,5.63
2019-04-10T10:19:05.757Z,5.93
2019-04-10T10:21:34.634Z,5.63
2019-04-10T10:24:04.492Z,5.90
2019-04-10T10:26:34.319Z,5.33
2019-04-10T10:29:03.191Z,5.70
2019-04-10T10:31:32.484Z,6.43
2019-04-10T10:34:01.901Z,5.33
2019-04-10T10:36:39.602Z,6.87
2019-04-10T10:39:07.139Z,5.47
2019-04-10T10:41:31.883Z,11.30
2019-04-10T10:44:00.628Z,14.93
2019-04-10T10:46:29.325Z,5.70
2019-04-10T10:48:58.072Z,6.13
2019-04-10T10:51:26.819Z,5.00
2019-04-10T10:53:56.590Z,6.07
2019-04-10T10:56:26.311Z,5.83
2019-04-10T10:58:57.816Z,6.03
2019-04-10T11:01:25.541Z,6.17
2019-04-10T11:03:54.197Z,5.70
2019-04-10T11:06:22.948Z,5.47
2019-04-10T11:08:51.536Z,5.53
2019-04-10T11:11:20.088Z,6.00
2019-04-10T11:13:48.782Z,5.33
2019-04-10T11:16:17.300Z,5.23
2019-04-10T11:18:46.882Z,4.93
2019-04-10T11:21:16.856Z,6.00
2019-04-10T11:23:46.611Z,5.27
2019-04-10T11:26:20.019Z,5.57
2019-04-10T11:28:45.693Z,6.47
2019-04-10T11:31:15.811Z,6.07
2019-04-10T11:33:49.862Z,5.47
2019-04-10T11:36:15.216Z,5.50
2019-04-10T11:38:46.577Z,4.93
2019-04-10T11:41:17.638Z,5.33
2019-04-10T11:43:46.619Z,6.13
2019-04-10T11:46:15.513Z,5.10
2019-04-10T11:48:45.524Z,5.27
2019-04-10T11:51:14.810Z,5.60
2019-04-10T11:53:45.403Z,5.07
2019-04-10T11:56:13.854Z,5.50
2019-04-10T12:01:13.033Z,5.07
2019-04-10T12:03:48.277Z,5.60
2019-04-10T12:06:13.181Z,5.07
2019-04-10T12:09:04.439Z,5.73
2019-04-10T12:11:15.533Z,5.33
2019-04-10T12:13:42.774Z,5.10
2019-04-10T12:16:11.326Z,5.53
2019-04-10T12:18:40.547Z,5.50
2019-04-10T12:21:09.373Z,4.27
2019-04-10T12:23:37.937Z,5.03
2019-04-10T12:26:07.438Z,5.13
2019-04-10T12:28:36.147Z,5.00
2019-04-10T12:31:05.892Z,5.27
2019-04-10T12:33:35.924Z,4.70
2019-04-10T12:36:07.226Z,4.50
2019-04-10T12:38:35.977Z,4.90
2019-04-10T12:41:05.270Z,4.77
2019-04-10T12:43:34.693Z,4.63
2019-04-10T12:46:04.461Z,4.30
2019-04-10T12:48:33.239Z,5.73
2019-04-10T12:51:01.764Z,4.63
2019-04-10T12:53:30.343Z,5.30
2019-04-10T12:55:59.739Z,4.97
2019-04-10T12:58:28.885Z,5.10
2019-04-10T13:00:58.391Z,4.63
2019-04-10T13:03:27.318Z,4.23
2019-04-10T13:05:55.941Z,5.13
2019-04-10T13:08:31.372Z,4.70
2019-04-10T13:10:54.630Z,4.63
2019-04-10T13:13:24.154Z,4.80
2019-04-10T13:15:54.093Z,4.20
2019-04-10T13:18:22.742Z,4.87
2019-04-10T13:20:51.184Z,4.80
2019-04-10T13:23:20.484Z,3.93
2019-04-10T13:25:55.337Z,4.50
2019-04-10T13:28:19.348Z,5.07
2019-04-10T13:30:53.190Z,4.87
2019-04-10T13:33:18.075Z,4.03
2019-04-10T13:35:46.685Z,4.23
2019-04-10T13:38:25.743Z,4.67
2019-04-10T13:40:45.941Z,4.50
2019-04-10T13:43:14.531Z,6.17
2019-04-10T13:45:43.819Z,4.50
2019-04-10T13:48:13.141Z,4.70
2019-04-10T13:50:43.169Z,5.50
2019-04-10T13:53:11.814Z,5.20
2019-04-10T13:55:40.278Z,5.37
2019-04-10T13:58:08.889Z,4.47
2019-04-10T14:00:40.710Z,4.23
2019-04-10T14:03:10.140Z,6.03
2019-04-10T14:05:39.067Z,4.33
2019-04-10T14:08:08.436Z,4.33
2019-04-10T14:10:40.796Z,4.20
2019-04-10T14:13:07.524Z,6.33
2019-04-10T14:15:36.312Z,10.90
2019-04-10T14:18:06.118Z,8.77
2019-04-10T14:20:41.523Z,5.03
2019-04-10T14:23:12.576Z,4.80
2019-04-10T14:26:00.485Z,5.17
2019-04-10T14:28:31.276Z,4.80
2019-04-10T14:31:02.057Z,4.27
2019-04-10T14:33:30.910Z,4.50
2019-04-10T14:36:00.008Z,4.57
2019-04-10T14:38:28.642Z,5.90
2019-04-10T14:40:57.747Z,5.30
2019-04-10T14:43:26.671Z,5.53
2019-04-10T14:45:55.170Z,4.90
2019-04-10T14:48:24.433Z,5.30
2019-04-10T14:50:52.970Z,5.37
2019-04-10T14:53:22.431Z,5.53
2019-04-10T14:55:51.481Z,8.10
2019-04-10T14:58:26.335Z,4.60
2019-04-10T15:00:50.498Z,6.87
2019-04-10T15:03:20.240Z,4.93
2019-04-10T15:05:51.447Z,4.90
2019-04-10T15:08:19.669Z,4.90
2019-04-10T15:10:48.669Z,5.57
2019-04-10T15:13:20.755Z,5.70
2019-04-10T15:15:48.274Z,5.33
2019-04-10T15:18:17.055Z,5.40
2019-04-10T15:20:45.596Z,4.67
2019-04-10T15:23:15.289Z,5.17
2019-04-10T15:25:44.107Z,4.33
2019-04-10T15:28:13.973Z,5.87
2019-04-10T15:30:42.684Z,5.20
2019-04-10T15:33:12.045Z,4.97
2019-04-10T15:35:41.799Z,5.37
2019-04-10T15:38:11.699Z,5.37
2019-04-10T15:40:40.382Z,5.23
2019-04-10T15:43:08.905Z,4.93
2019-04-10T15:45:37.889Z,6.07
2019-04-10T15:48:06.564Z,3.83
2019-04-10T15:50:35.119Z,5.87
2019-04-10T15:53:04.088Z,4.93
2019-04-10T15:55:33.293Z,6.33
2019-04-10T15:58:03.649Z,5.30
2019-04-10T16:00:33.023Z,6.37
2019-04-10T16:03:02.859Z,4.87
2019-04-10T16:05:31.750Z,6.57
2019-04-10T16:08:00.800Z,6.10
2019-04-10T16:10:31.261Z,7.10
2019-04-10T16:13:01.481Z,6.70
2019-04-10T16:15:31.694Z,5.73
2019-04-10T16:18:07.724Z,7.10
2019-04-10T16:20:36.919Z,4.60
2019-04-10T16:23:16.381Z,6.63
2019-04-10T16:25:47.479Z,7.07
2019-04-10T16:28:17.834Z,7.60
2019-04-10T16:30:46.629Z,7.20
2019-04-10T16:33:15.170Z,8.20
2019-04-10T16:35:44.043Z,7.43
2019-04-10T16:38:12.876Z,7.10
2019-04-10T16:40:41.330Z,7.97
2019-04-10T16:43:10.046Z,7.73
2019-04-10T16:45:38.682Z,4.80
2019-04-10T16:48:08.472Z,8.33
2019-04-10T16:50:38.270Z,8.33
2019-04-10T16:53:27.845Z,8.47
2019-04-10T16:55:56.903Z,7.83
2019-04-10T16:58:25.671Z,6.07
2019-04-10T17:00:54.224Z,6.03
2019-04-10T17:03:23.004Z,6.07
2019-04-10T17:05:51.465Z,7.60
2019-04-10T17:08:20.042Z,7.33
2019-04-10T17:10:48.504Z,6.00
2019-04-10T17:13:18.221Z,2.67
2019-04-10T17:15:48.698Z,7.57
2019-04-10T17:18:17.288Z,6.77
2019-04-10T17:20:46.847Z,6.43
2019-04-10T17:23:16.409Z,7.60
2019-04-10T17:25:45.070Z,7.70
2019-04-10T17:28:14.278Z,8.03
2019-04-10T17:30:44.126Z,8.83
2019-04-10T17:33:13.220Z,8.63
2019-04-10T17:35:41.878Z,10.97
2019-04-10T17:38:10.404Z,8.87
2019-04-10T17:40:47.718Z,8.17
2019-04-10T17:43:09.105Z,8.13
2019-04-10T17:45:38.548Z,8.43
2019-04-10T17:48:07.514Z,7.30
2019-04-10T17:50:37.167Z,7.77
2019-04-10T17:53:07.252Z,7.17
2019-04-10T17:55:35.990Z,9.13
2019-04-10T17:58:05.384Z,3.77
2019-04-10T18:00:35.641Z,6.07
2019-04-10T18:03:05.322Z,9.40
2019-04-10T18:05:34.981Z,9.10
2019-04-10T18:08:05.009Z,7.57
2019-04-10T18:10:43.461Z,6.30
2019-04-10T18:13:05.142Z,7.13
2019-04-10T18:15:33.859Z,6.87
2019-04-10T18:18:03.266Z,5.37
2019-04-10T18:20:32.173Z,8.17
2019-04-10T18:23:00.961Z,5.63
2019-04-10T18:25:49.917Z,7.50
2019-04-10T18:28:19.213Z,6.90
2019-04-10T18:30:48.198Z,6.27
2019-04-10T18:33:16.879Z,6.83
2019-04-10T18:35:45.370Z,6.63
2019-04-10T18:38:13.881Z,6.60
2019-04-10T18:40:52.151Z,6.03
2019-04-10T18:43:12.551Z,7.20
2019-04-10T18:45:54.032Z,7.37
2019-04-10T18:48:11.343Z,7.30
2019-04-10T18:50:40.558Z,7.07
2019-04-10T18:53:09.339Z,8.20
2019-04-10T18:55:38.660Z,6.93
2019-04-10T18:58:09.616Z,7.80
2019-04-10T19:00:40.692Z,8.27
2019-04-10T19:03:13.724Z,6.83
2019-04-10T19:05:46.434Z,7.50
2019-04-10T19:08:16.336Z,8.63
2019-04-10T19:10:45.490Z,7.70
2019-04-10T19:13:15.070Z,8.53
2019-04-10T19:15:44.855Z,7.43
2019-04-10T19:18:13.570Z,7.57
2019-04-10T19:20:42.955Z,7.90
2019-04-10T19:23:11.457Z,7.63
2019-04-10T19:25:40.887Z,6.70
2019-04-10T19:28:10.524Z,7.33
2019-04-10T19:30:41.492Z,8.37
2019-04-10T19:33:10.606Z,7.23
2019-04-10T19:35:39.278Z,7.30
2019-04-10T19:38:07.898Z,6.67
2019-04-10T19:40:38.332Z,6.97
2019-04-10T19:43:08.292Z,7.07
2019-04-10T19:45:37.078Z,7.23
2019-04-10T19:48:06.769Z,6.80
2019-04-10T19:50:35.319Z,6.60
2019-04-10T19:53:04.753Z,7.57
2019-04-10T19:55:33.359Z,7.20
2019-04-10T19:58:01.890Z,7.40
2019-04-10T20:00:33.182Z,7.10
2019-04-10T20:03:01.650Z,8.17
2019-04-10T20:05:30.184Z,8.03
2019-04-10T20:07:59.663Z,8.03
2019-04-10T20:10:28.234Z,7.33
2019-04-10T20:12:57.253Z,7.30
2019-04-10T20:15:26.704Z,6.93
2019-04-10T20:17:56.615Z,6.90
2019-04-10T20:20:25.131Z,7.20
2019-04-10T20:22:53.755Z,7.70
2019-04-10T20:25:22.227Z,7.80
2019-04-10T20:27:50.749Z,7.50
2019-04-10T20:30:21.051Z,8.33
2019-04-10T20:32:50.210Z,7.60
2019-04-10T20:35:20.219Z,8.47
2019-04-10T20:37:49.169Z,8.90
2019-04-10T20:40:19.138Z,8.97
2019-04-10T20:42:48.727Z,9.93
2019-04-10T20:45:17.881Z,7.17
2019-04-10T20:47:49.803Z,8.33
2019-04-10T20:50:19.581Z,6.83
2019-04-10T20:52:48.337Z,7.87
2019-04-10T20:55:17.475Z,8.00
2019-04-10T20:57:46.186Z,7.47
2019-04-10T21:00:20.273Z,8.07
2019-04-10T21:02:49.070Z,7.40
2019-04-10T21:05:17.993Z,7.93
2019-04-10T21:07:46.575Z,8.00
2019-04-10T21:10:15.112Z,8.10
2019-04-10T21:12:44.122Z,7.73
2019-04-10T21:15:13.222Z,8.03
2019-04-10T21:17:42.438Z,8.30
2019-04-10T21:20:13.288Z,7.90
2019-04-10T21:22:41.569Z,8.27
2019-04-10T21:25:10.288Z,8.70
2019-04-10T21:27:39.779Z,8.83
2019-04-10T21:30:20.549Z,9.13
2019-04-10T21:32:52.915Z,10.83
2019-04-10T21:35:22.888Z,8.70
2019-04-10T21:37:52.797Z,8.87
2019-04-10T21:40:21.359Z,8.93
2019-04-10T21:42:49.810Z,10.10
2019-04-10T21:45:18.264Z,8.83
2019-04-10T21:47:48.072Z,10.70
2019-04-10T21:50:18.502Z,10.53
2019-04-10T21:52:47.634Z,9.23
2019-04-10T21:55:17.066Z,10.00
2019-04-10T21:57:46.829Z,10.97
2019-04-10T22:00:18.436Z,10.40
2019-04-10T22:02:46.989Z,10.40
2019-04-10T22:05:16.443Z,9.57
2019-04-10T22:07:50.288Z,11.50
2019-04-10T22:10:36.297Z,10.10
2019-04-10T22:13:05.877Z,11.40
2019-04-10T22:15:37.205Z,10.57
2019-04-10T22:18:07.179Z,10.10
2019-04-10T22:20:36.084Z,10.70
2019-04-10T22:23:04.754Z,10.23
2019-04-10T22:25:33.217Z,10.10
2019-04-10T22:28:01.742Z,10.73
2019-04-10T22:30:30.197Z,9.73
2019-04-10T22:32:59.730Z,11.87
2019-04-10T22:35:28.392Z,10.80
2019-04-10T22:37:56.917Z,11.00
2019-04-10T22:40:26.122Z,11.27
2019-04-10T22:42:55.426Z,10.80
2019-04-10T22:45:27.970Z,10.67
2019-04-10T22:47:58.461Z,11.90
2019-04-10T22:50:27.577Z,12.00
2019-04-10T22:52:57.531Z,11.60
2019-04-10T22:55:26.130Z,12.13
2019-04-10T22:57:54.862Z,11.13
2019-04-10T23:00:25.303Z,11.70
2019-04-10T23:02:53.778Z,11.77
2019-04-10T23:05:22.656Z,11.17
2019-04-10T23:07:51.478Z,11.47
2019-04-10T23:10:21.131Z,11.67
2019-04-10T23:12:58.922Z,10.47
2019-04-10T23:15:20.118Z,12.03
2019-04-10T23:17:48.703Z,11.47
2019-04-10T23:20:18.329Z,11.83
2019-04-10T23:22:48.740Z,11.70
2019-04-10T23:25:18.314Z,11.47
2019-04-10T23:27:48.026Z,11.03
2019-04-10T23:30:18.730Z,11.93
2019-04-10T23:32:48.438Z,12.50
2019-04-10T23:35:17.163Z,10.90
2019-04-10T23:37:46.866Z,13.30
2019-04-10T23:40:16.841Z,13.67
2019-04-10T23:43:04.775Z,12.23
2019-04-10T23:45:25.884Z,11.67
2019-04-10T23:47:54.799Z,11.63
2019-04-10T23:50:23.958Z,13.50
2019-04-10T23:52:52.904Z,12.60
2019-04-10T23:55:21.875Z,12.20
2019-04-10T23:57:50.364Z,12.60
